Date,TemperatureHighF,TemperatureAvgF,TemperatureLowF,DewpointHighF,DewpointAvgF,DewpointLowF,HumidityHigh,HumidityAvg,HumidityLow,PressureMaxIn,PressureMinIn,WindSpeedMaxMPH,WindSpeedAvgMPH,GustSpeedMaxMPH,PrecipitationSumIn
2013-5-1,83,72,66,73,68,66,99,89,62,29.91,29.83,6,1,11,0.39
2013-5-2,82,72,65,70,67,65,99,88,63,29.97,29.88,4,1,11,0.07
2013-5-3,74,59,54,69,57,53,99,95,85,29.99,29.88,9,6,15,0.19
2013-5-4,75,54,42,50,44,40,99,76,29,30.01,29.95,6,1,8,0.00
2013-5-5,73,73,73,41,41,41,31,31,31,29.95,29.95,2,2,8,0.00
2013-5-6,80,65,50,60,52,47,95,67,37,30.04,29.95,6,2,9,0.00
2013-5-7,84,72,57,64,58,55,99,66,41,30.07,29.98,11,1,14,0.00
2013-5-8,93,75,60,69,62,59,99,68,36,30.12,30.03,3,1,5,0.00
2013-5-9,89,76,64,72,67,63,99,77,45,30.11,30.02,7,2,10,0.00
2013-5-10,74,69,65,73,68,64,99,98,92,30.08,29.90,17,2,25,2.07
2013-5-11,80,72,63,71,68,62,99,87,72,30.08,29.95,5,1,7,0.56
2013-5-12,69,67,66,67,59,55,94,77,68,30.18,30.08,6,2,8,0.00
2013-5-13,87,70,53,56,49,44,84,52,24,30.30,30.17,8,2,12,0.00
2013-5-14,94,75,58,65,58,54,99,61,28,30.29,30.17,3,1,4,0.00
2013-5-15,88,74,61,70,63,59,99,70,42,30.20,30.03,5,1,8,0.00
2013-5-16,91,77,64,72,66,63,99,73,41,30.05,29.92,6,2,10,0.00
2013-5-17,96,82,72,75,72,70,99,76,45,30.02,29.95,6,2,9,0.00
2013-5-18,97,84,74,76,73,70,99,73,45,30.07,29.99,5,1,7,0.00
2013-5-23,99,81,67,76,66,60,99,62,42,29.93,29.73,8,4,11,12.78
2013-5-24,96,80,67,75,71,66,99,76,46,30.06,29.95,4,1,8,0.01
2013-5-25,93,80,69,71,66,57,86,66,43,30.13,30.03,5,1,10,0.00
2013-5-26,94,79,69,72,69,65,99,72,44,30.09,30.01,6,1,9,0.00
2013-5-27,96,81,68,74,70,66,98,71,43,30.02,29.91,4,2,7,0.00
2013-5-28,89,79,70,73,72,69,98,80,56,29.97,29.90,5,2,8,0.00
2013-5-29,84,84,84,78,78,78,84,84,84,29.88,29.88,4,4,6,0.11